Time;durP1;ratioP1;P1;durP2;ratioP2;P2;SDS_P1;SDS_P2;PMS_P1;PMS_P2;Temp;Humidity;BMP_temperature;BMP_pressure;BME280_temperature;BME280_humidity;BME280_pressure;Samples;Min_cycle;Max_cycle;Signal;HPM_P1;HPM_P2
2023/01/06 00:01:57;;;;;;;26.73;10.10;;;10.20;99.90;;;;;;5070143;28;20037;-65
2023/01/06 00:04:23;;;;;;;18.20;9.73;;;10.10;99.90;;;;;;5070922;28;20090;-65
2023/01/06 00:06:49;;;;;;;22.55;9.85;;;10.20;99.90;;;;;;5070000;28;20471;-64
2023/01/06 00:09:14;;;;;;;24.65;11.15;;;10.20;99.90;;;;;;5070701;28;20117;-65
2023/01/06 00:11:40;;;;;;;20.52;10.73;;;10.20;99.90;;;;;;5070159;28;20044;-65
2023/01/06 00:14:06;;;;;;;22.50;9.60;;;10.20;99.90;;;;;;5070399;28;20044;-65
2023/01/06 00:16:31;;;;;;;17.90;9.75;;;10.20;99.90;;;;;;5070817;28;20036;-65
2023/01/06 00:18:58;;;;;;;23.55;10.02;;;10.20;99.90;;;;;;5053680;28;20049;-65
2023/01/06 00:21:24;;;;;;;21.00;9.68;;;10.20;99.90;;;;;;5070306;28;20113;-65
2023/01/06 00:23:50;;;;;;;19.80;9.65;;;10.20;99.90;;;;;;5070013;28;20435;-65
2023/01/06 00:26:16;;;;;;;22.30;10.27;;;10.20;99.90;;;;;;5070155;28;20150;-66
2023/01/06 00:28:42;;;;;;;21.52;10.18;;;10.20;99.90;;;;;;5070212;28;20048;-65
2023/01/06 00:31:11;;;;;;;20.50;9.98;;;10.20;99.90;;;;;;5069866;28;20044;-65
2023/01/06 00:33:37;;;;;;;16.13;9.68;;;10.20;99.90;;;;;;5069613;28;20089;-65
2023/01/06 00:36:04;;;;;;;16.13;10.27;;;10.20;99.90;;;;;;5069771;28;20037;-65
2023/01/06 00:38:30;;;;;;;15.82;9.80;;;10.20;99.90;;;;;;5070051;28;20059;-66
2023/01/06 00:40:56;;;;;;;14.88;9.40;;;10.30;99.90;;;;;;5069058;28;20433;-65
2023/01/06 00:43:22;;;;;;;16.10;9.93;;;10.30;99.90;;;;;;5069729;28;20083;-65
2023/01/06 00:45:47;;;;;;;13.27;8.77;;;10.30;99.90;;;;;;5052882;28;20094;-65
2023/01/06 00:48:13;;;;;;;13.35;8.73;;;10.30;99.90;;;;;;5069543;28;20044;-65
2023/01/06 00:50:38;;;;;;;14.13;7.70;;;10.20;99.90;;;;;;5050494;28;20049;-65
2023/01/06 00:53:04;;;;;;;11.60;7.75;;;10.20;99.90;;;;;;5069695;28;20047;-66
2023/01/06 00:55:30;;;;;;;14.25;7.28;;;10.20;99.90;;;;;;5068322;28;20037;-66
2023/01/06 00:57:55;;;;;;;13.90;7.38;;;10.20;99.90;;;;;;5068890;28;20045;-65
2023/01/06 01:00:21;;;;;;;14.40;8.07;;;10.10;99.90;;;;;;5068957;28;20041;-66
2023/01/06 01:02:47;;;;;;;13.85;7.63;;;10.10;99.90;;;;;;5069087;28;20064;-65
2023/01/06 01:05:13;;;;;;;14.93;8.35;;;10.10;99.90;;;;;;5050974;28;20114;-65
2023/01/06 01:07:39;;;;;;;13.88;8.50;;;10.10;99.90;;;;;;5052222;28;20093;-66
2023/01/06 01:10:06;;;;;;;14.93;9.50;;;10.00;99.90;;;;;;5069047;28;20123;-64
2023/01/06 01:12:32;;;;;;;14.43;9.02;;;10.00;99.90;;;;;;5068701;28;20040;-65
2023/01/06 01:14:57;;;;;;;16.27;8.90;;;10.00;99.90;;;;;;5068989;28;20397;-66
2023/01/06 01:17:29;;;;;;;17.52;9.23;;;10.00;99.90;;;;;;5068113;28;20051;-65
2023/01/06 01:19:56;;;;;;;17.75;8.57;;;10.10;99.90;;;;;;5068993;28;20048;-65
2023/01/06 01:22:23;;;;;;;14.98;8.38;;;10.10;99.90;;;;;;5068282;28;20044;-65
2023/01/06 01:24:49;;;;;;;13.93;8.18;;;10.00;99.90;;;;;;5069039;28;20101;-65
2023/01/06 01:27:15;;;;;;;13.18;7.65;;;10.10;99.90;;;;;;5068609;28;20044;-65
2023/01/06 01:29:41;;;;;;;10.45;6.97;;;10.10;99.90;;;;;;5068809;28;20048;-66
2023/01/06 01:32:07;;;;;;;12.57;6.85;;;10.10;99.90;;;;;;5069141;28;20426;-66
2023/01/06 01:34:32;;;;;;;14.00;6.40;;;10.10;99.90;;;;;;5068625;28;20043;-66
2023/01/06 01:36:59;;;;;;;9.88;6.40;;;10.10;99.90;;;;;;5068639;28;20044;-66
2023/01/06 01:39:27;;;;;;;11.45;6.65;;;10.10;99.90;;;;;;5084106;28;20042;-65
2023/01/06 01:41:54;;;;;;;14.32;6.07;;;10.10;99.90;;;;;;5069114;28;20376;-65
2023/01/06 01:44:51;;;;;;;12.88;5.80;;;10.20;99.90;;;;;;5068866;28;20037;-66
2023/01/06 01:47:36;;;;;;;11.10;5.80;;;10.10;99.90;;;;;;5068597;28;20040;-65
2023/01/06 01:50:12;;;;;;;9.75;5.18;;;10.10;99.90;;;;;;5065565;28;20420;-65
2023/01/06 01:52:40;;;;;;;11.25;5.63;;;10.10;99.90;;;;;;5068345;28;20108;-66
2023/01/06 01:55:07;;;;;;;10.65;4.95;;;10.10;99.90;;;;;;5068677;28;20036;-65
2023/01/06 01:57:44;;;;;;;11.93;5.85;;;10.10;99.90;;;;;;5068294;28;20052;-65
2023/01/06 02:00:10;;;;;;;12.77;4.70;;;10.10;99.90;;;;;;5051686;28;20046;-65
2023/01/06 02:02:37;;;;;;;12.82;4.88;;;10.10;99.90;;;;;;5068642;28;20043;-65
2023/01/06 02:05:04;;;;;;;13.35;5.93;;;10.10;99.90;;;;;;5068635;28;20111;-66
2023/01/06 02:07:29;;;;;;;9.23;4.60;;;10.10;99.90;;;;;;5068821;28;20115;-66
2023/01/06 02:10:06;;;;;;;10.95;5.47;;;10.10;99.90;;;;;;5068583;28;20127;-65
2023/01/06 02:12:33;;;;;;;8.07;5.10;;;10.10;99.90;;;;;;5068095;28;20048;-64
2023/01/06 02:14:58;;;;;;;8.52;4.10;;;10.10;99.90;;;;;;5068488;28;20071;-66
2023/01/06 02:17:42;;;;;;;10.27;4.40;;;10.10;99.90;;;;;;5068437;28;20072;-65
2023/01/06 02:20:38;;;;;;;7.55;3.80;;;10.10;99.90;;;;;;5068597;28;20094;-65
2023/01/06 02:23:09;;;;;;;10.57;4.00;;;10.10;99.90;;;;;;5068344;28;20414;-65
2023/01/06 02:26:12;;;;;;;10.37;4.00;;;10.10;99.90;;;;;;5067390;28;20048;-66
2023/01/06 02:28:44;;;;;;;;;;;10.10;99.90;;;;;;5068857;28;20371;-66
2023/01/06 02:31:41;;;;;;;10.55;4.10;;;10.10;99.90;;;;;;5068528;28;19924;-64
2023/01/06 02:34:15;;;;;;;7.90;3.95;;;10.10;99.90;;;;;;5067950;28;20059;-66
2023/01/06 02:36:50;;;;;;;7.72;3.72;;;10.10;99.90;;;;;;5068696;28;20467;-65
2023/01/06 02:39:37;;;;;;;7.13;4.30;;;10.10;99.90;;;;;;5068491;28;20037;-65
2023/01/06 02:42:40;;;;;;;9.63;4.50;;;10.20;99.90;;;;;;5065692;28;20040;-65
2023/01/06 02:45:13;;;;;;;;;;;10.20;99.90;;;;;;5065920;28;20054;-66
2023/01/06 02:48:02;;;;;;;8.73;4.68;;;10.20;99.90;;;;;;5068067;28;20323;-65
2023/01/06 02:50:33;;;;;;;8.95;4.68;;;10.20;99.90;;;;;;5067925;28;20058;-65
2023/01/06 02:53:31;;;;;;;6.93;4.53;;;10.20;99.90;;;;;;5067929;28;20047;-66
2023/01/06 02:55:58;;;;;;;6.97;5.00;;;10.20;99.90;;;;;;5007695;28;20049;-65
2023/01/06 02:58:44;;;;;;;7.10;4.82;;;10.20;99.90;;;;;;5008367;28;20096;-65
2023/01/06 03:01:16;;;;;;;6.78;4.57;;;10.20;99.90;;;;;;5010508;28;20057;-65
2023/01/06 03:03:46;;;;;;;5.13;4.25;;;10.10;99.90;;;;;;5027050;28;20100;-66
2023/01/06 03:06:17;;;;;;;6.60;4.70;;;10.20;99.90;;;;;;5013469;28;20046;-65
2023/01/06 03:08:45;;;;;;;9.32;5.50;;;10.20;99.90;;;;;;5013772;28;20164;-65
2023/01/06 03:11:11;;;;;;;6.65;4.65;;;10.20;99.90;;;;;;5013668;28;20052;-65
2023/01/06 03:13:49;;;;;;;9.05;4.90;;;10.20;99.90;;;;;;5013877;28;20057;-65
2023/01/06 03:16:15;;;;;;;6.43;4.60;;;10.20;99.90;;;;;;5013556;28;20046;-66
2023/01/06 03:18:44;;;;;;;15.55;5.90;;;10.10;99.90;;;;;;5014174;28;20080;-65
2023/01/06 03:21:17;;;;;;;7.22;4.65;;;10.10;99.90;;;;;;5013660;28;20037;-65
2023/01/06 03:23:44;;;;;;;9.32;5.13;;;10.10;99.90;;;;;;5014046;28;20043;-65
2023/01/06 03:26:10;;;;;;;8.35;4.80;;;10.10;99.90;;;;;;5013428;28;20056;-66
2023/01/06 03:28:36;;;;;;;9.55;5.13;;;10.10;99.90;;;;;;5013833;28;20041;-65
2023/01/06 03:31:38;;;;;;;8.23;5.32;;;10.10;99.90;;;;;;5013794;28;20046;-65
2023/01/06 03:34:38;;;;;;;8.40;4.47;;;10.10;99.90;;;;;;5071160;28;20087;-65
2023/01/06 03:37:36;;;;;;;11.48;4.65;;;10.10;99.90;;;;;;5070730;28;20059;-66
2023/01/06 03:40:20;;;;;;;9.32;4.53;;;10.10;99.90;;;;;;5013110;28;20052;-65
2023/01/06 03:43:12;;;;;;;11.27;4.30;;;10.10;99.90;;;;;;5013777;28;20041;-65
2023/01/06 03:45:55;;;;;;;8.23;4.35;;;10.10;99.90;;;;;;4997242;28;20312;-65
2023/01/06 03:48:36;;;;;;;8.98;4.00;;;10.10;99.90;;;;;;5013223;28;20549;-65
2023/01/06 03:51:37;;;;;;;6.03;4.22;;;10.10;99.90;;;;;;5012322;28;20099;-66
2023/01/06 03:54:19;;;;;;;5.72;3.75;;;10.10;99.90;;;;;;5013453;28;20053;-66
2023/01/06 03:56:50;;;;;;;7.95;3.92;;;10.10;99.90;;;;;;5029003;28;20049;-65
2023/01/06 03:59:21;;;;;;;9.52;4.30;;;10.10;99.90;;;;;;5012956;28;20191;-65
2023/01/06 04:01:48;;;;;;;6.65;3.33;;;10.10;99.90;;;;;;5013397;28;20176;-66
2023/01/06 04:04:15;;;;;;;7.93;4.10;;;10.10;99.90;;;;;;5013064;28;20085;-65
2023/01/06 04:06:41;;;;;;;4.50;3.60;;;10.10;99.90;;;;;;5013302;28;20067;-65
2023/01/06 04:09:06;;;;;;;5.57;3.55;;;10.10;99.90;;;;;;5012594;28;20044;-66
2023/01/06 04:14:16;;;;;;;5.25;3.10;;;10.10;99.90;;;;;;5012695;28;20064;-65
2023/01/06 04:16:42;;;;;;;5.43;3.20;;;10.10;99.90;;;;;;5033448;28;20378;-65
2023/01/06 04:19:07;;;;;;;7.20;3.20;;;10.10;99.90;;;;;;5069847;28;20491;-65
2023/01/06 04:21:33;;;;;;;4.85;2.90;;;10.10;99.90;;;;;;5069778;28;20036;-65
2023/01/06 04:23:59;;;;;;;3.70;2.65;;;10.10;99.90;;;;;;5070249;28;20126;-65
2023/01/06 04:26:25;;;;;;;4.75;3.00;;;10.10;99.90;;;;;;5070131;28;20040;-66
2023/01/06 04:28:51;;;;;;;5.28;3.53;;;10.10;99.90;;;;;;5070384;28;20044;-65
2023/01/06 04:31:17;;;;;;;4.10;3.70;;;10.10;99.90;;;;;;5068232;28;20036;-66
2023/01/06 04:33:42;;;;;;;6.60;3.88;;;10.10;99.90;;;;;;5068175;28;20110;-66
2023/01/06 04:36:08;;;;;;;5.78;3.88;;;10.10;99.90;;;;;;5069611;28;20083;-66
2023/01/06 04:38:34;;;;;;;5.57;4.55;;;10.10;99.90;;;;;;5069137;28;20032;-65
2023/01/06 04:40:59;;;;;;;7.70;4.93;;;10.10;99.90;;;;;;5068169;28;20037;-65
2023/01/06 04:43:25;;;;;;;7.40;5.20;;;10.10;99.90;;;;;;5069312;28;20033;-65
2023/01/06 04:45:51;;;;;;;7.72;5.70;;;10.10;99.90;;;;;;5069788;28;20040;-66
2023/01/06 04:48:16;;;;;;;8.27;5.78;;;10.10;99.90;;;;;;5069843;28;20070;-65
2023/01/06 04:50:42;;;;;;;6.72;5.38;;;10.10;99.90;;;;;;5069096;28;20139;-65
2023/01/06 04:53:10;;;;;;;6.22;5.40;;;10.10;99.90;;;;;;5067947;28;20051;-66
2023/01/06 04:55:39;;;;;;;5.57;5.00;;;10.10;99.90;;;;;;5068667;28;20036;-66
2023/01/06 04:58:06;;;;;;;5.45;4.78;;;10.10;99.90;;;;;;5069274;28;20049;-65
2023/01/06 05:00:31;;;;;;;7.15;5.00;;;10.10;99.90;;;;;;5069292;28;20475;-65
2023/01/06 05:02:57;;;;;;;5.28;4.40;;;10.10;99.90;;;;;;5068323;28;20439;-65
2023/01/06 05:05:23;;;;;;;5.93;3.85;;;10.10;99.90;;;;;;5070271;28;20044;-65
2023/01/06 05:07:51;;;;;;;4.72;3.22;;;10.10;99.90;;;;;;5069606;28;20044;-65
2023/01/06 05:10:17;;;;;;;7.50;3.08;;;10.10;99.90;;;;;;5069213;28;20400;-65
2023/01/06 05:12:43;;;;;;;4.82;2.92;;;10.20;99.90;;;;;;5068726;28;20075;-66
2023/01/06 05:15:10;;;;;;;4.75;2.45;;;10.20;99.90;;;;;;5070576;28;20036;-65
2023/01/06 05:17:36;;;;;;;4.03;2.25;;;10.20;99.90;;;;;;5069246;28;20068;-65
2023/01/06 05:20:02;;;;;;;5.90;2.13;;;10.20;99.90;;;;;;5069240;28;20447;-64
2023/01/06 05:22:28;;;;;;;2.47;1.92;;;10.20;99.90;;;;;;5069092;28;20115;-65
2023/01/06 05:24:53;;;;;;;4.53;2.05;;;10.20;99.90;;;;;;5069128;28;20063;-64
2023/01/06 05:27:19;;;;;;;3.22;1.92;;;10.20;99.90;;;;;;5052370;28;20053;-66
2023/01/06 05:29:45;;;;;;;5.90;2.33;;;10.20;99.90;;;;;;5068885;28;20130;-65
2023/01/06 05:32:11;;;;;;;3.78;2.25;;;10.20;99.90;;;;;;5068662;28;20097;-65
2023/01/06 05:34:37;;;;;;;5.68;2.88;;;10.20;99.90;;;;;;5068467;28;20552;-65
2023/01/06 05:37:02;;;;;;;4.40;2.30;;;10.20;99.90;;;;;;5068848;28;20560;-65
2023/01/06 05:39:28;;;;;;;4.05;2.83;;;10.20;99.90;;;;;;5068902;28;20392;-66
2023/01/06 05:41:54;;;;;;;3.72;2.92;;;10.20;99.90;;;;;;5068794;28;20193;-65
2023/01/06 05:44:19;;;;;;;5.63;3.20;;;10.20;99.90;;;;;;5068924;28;20126;-65
2023/01/06 05:46:45;;;;;;;6.13;3.60;;;10.20;99.90;;;;;;5068347;28;20055;-65
2023/01/06 05:49:10;;;;;;;5.22;3.70;;;10.20;99.90;;;;;;5068666;28;20040;-66
2023/01/06 05:51:36;;;;;;;5.57;4.10;;;10.20;99.90;;;;;;5069150;28;20047;-65
2023/01/06 05:54:07;;;;;;;7.07;4.30;;;10.20;99.90;;;;;;5068599;28;20040;-65
2023/01/06 05:56:32;;;;;;;6.10;3.72;;;10.20;99.90;;;;;;5068347;28;20511;-65
2023/01/06 05:58:58;;;;;;;7.93;4.25;;;10.20;99.90;;;;;;5068396;28;20048;-65
2023/01/06 06:01:26;;;;;;;5.85;3.88;;;10.30;99.90;;;;;;5068876;28;20072;-66
2023/01/06 06:03:53;;;;;;;4.57;3.72;;;10.30;99.90;;;;;;5068663;28;20067;-66
2023/01/06 06:06:20;;;;;;;6.53;3.83;;;10.20;99.90;;;;;;5068263;28;20040;-65
2023/01/06 06:08:46;;;;;;;4.55;4.15;;;10.20;99.90;;;;;;5068575;28;20055;-65
2023/01/06 06:11:13;;;;;;;5.15;4.07;;;10.20;99.90;;;;;;5069653;28;20036;-66
2023/01/06 06:13:48;;;;;;;5.75;3.92;;;10.20;99.90;;;;;;5068951;28;20032;-66
2023/01/06 06:16:15;;;;;;;5.30;4.07;;;10.20;99.90;;;;;;5068137;28;20501;-65
2023/01/06 06:18:42;;;;;;;6.93;3.97;;;10.20;99.90;;;;;;5068498;28;20479;-65
2023/01/06 06:21:14;;;;;;;4.97;4.30;;;10.10;99.90;;;;;;5068585;28;20067;-66
2023/01/06 06:23:40;;;;;;;6.60;4.55;;;10.10;99.90;;;;;;5064893;28;20386;-66
2023/01/06 06:26:07;;;;;;;7.05;4.10;;;10.10;99.90;;;;;;5067794;28;20109;-66
2023/01/06 06:28:34;;;;;;;6.32;4.40;;;10.00;99.90;;;;;;5050930;28;20044;-66
2023/01/06 06:31:28;;;;;;;4.45;3.90;;;10.00;99.90;;;;;;5068635;28;20127;-66
2023/01/06 06:33:59;;;;;;;5.13;4.32;;;10.00;99.90;;;;;;5066077;28;20099;-65
2023/01/06 06:36:26;;;;;;;5.35;4.70;;;9.90;99.90;;;;;;5067991;28;20391;-66
2023/01/06 06:38:53;;;;;;;5.18;4.68;;;9.90;99.90;;;;;;5066833;28;20066;-65
2023/01/06 06:41:20;;;;;;;5.63;4.85;;;9.90;99.90;;;;;;5071847;28;20036;-65
2023/01/06 06:43:48;;;;;;;6.40;5.40;;;9.80;99.90;;;;;;5071970;28;20108;-65
2023/01/06 06:46:13;;;;;;;6.18;5.50;;;9.80;99.90;;;;;;5055417;28;20051;-65
2023/01/06 06:48:39;;;;;;;7.68;6.05;;;9.70;99.90;;;;;;5070905;28;20044;-65
2023/01/06 06:51:15;;;;;;;6.65;5.97;;;9.70;99.90;;;;;;5082604;28;20064;-65
2023/01/06 06:53:41;;;;;;;8.48;5.80;;;9.70;99.90;;;;;;5071081;28;20036;-65
2023/01/06 06:56:09;;;;;;;8.07;6.10;;;9.60;99.90;;;;;;5071374;28;20087;-65
2023/01/06 06:58:36;;;;;;;7.15;6.53;;;9.60;99.90;;;;;;5071621;28;20036;-66
2023/01/06 07:01:06;;;;;;;7.28;6.55;;;9.60;99.90;;;;;;5071880;28;20158;-66
2023/01/06 07:03:32;;;;;;;6.65;6.00;;;9.60;99.90;;;;;;5070980;28;20088;-66
2023/01/06 07:05:58;;;;;;;7.25;6.55;;;9.60;99.90;;;;;;5053136;28;20126;-65
2023/01/06 07:08:24;;;;;;;7.20;6.50;;;9.60;99.90;;;;;;5068355;28;20391;-66
2023/01/06 07:10:50;;;;;;;7.95;6.70;;;9.60;99.90;;;;;;5071239;28;20496;-66
2023/01/06 07:13:16;;;;;;;8.10;6.50;;;9.60;99.90;;;;;;5071750;28;20063;-66
2023/01/06 07:15:42;;;;;;;7.55;6.85;;;9.60;99.90;;;;;;5068469;28;20048;-65
2023/01/06 07:18:08;;;;;;;10.45;6.72;;;9.60;99.90;;;;;;5066991;28;20067;-66
2023/01/06 07:20:35;;;;;;;8.15;7.18;;;9.60;99.90;;;;;;5069285;28;20043;-66
2023/01/06 07:23:01;;;;;;;7.88;7.07;;;9.60;99.90;;;;;;5070119;28;20055;-66
2023/01/06 07:25:27;;;;;;;9.43;7.40;;;9.60;99.90;;;;;;5071133;28;20036;-66
2023/01/06 07:27:57;;;;;;;8.20;7.38;;;9.60;99.90;;;;;;5069467;28;20124;-65
2023/01/06 07:30:24;;;;;;;9.75;7.43;;;9.60;99.90;;;;;;5088106;28;20041;-66
2023/01/06 07:32:50;;;;;;;10.00;7.00;;;9.60;99.90;;;;;;5070342;28;20036;-66
2023/01/06 07:35:16;;;;;;;7.93;6.60;;;9.60;99.90;;;;;;5068590;28;20483;-66
2023/01/06 07:37:42;;;;;;;7.03;6.43;;;9.60;99.90;;;;;;5069571;28;20044;-66
2023/01/06 07:40:08;;;;;;;8.50;5.93;;;9.60;99.90;;;;;;5069527;28;20135;-66
2023/01/06 07:42:35;;;;;;;6.30;5.55;;;9.60;99.90;;;;;;5069827;28;20029;-66
2023/01/06 07:45:01;;;;;;;7.47;5.82;;;9.60;99.90;;;;;;5052726;28;20052;-65
2023/01/06 07:47:26;;;;;;;5.97;5.40;;;9.60;99.90;;;;;;5069935;28;20056;-66
2023/01/06 07:49:52;;;;;;;6.20;4.80;;;9.60;99.90;;;;;;5052454;28;20064;-67
2023/01/06 07:52:18;;;;;;;6.43;3.70;;;9.60;99.90;;;;;;5069631;28;20044;-65
2023/01/06 07:54:43;;;;;;;3.53;2.92;;;9.60;99.90;;;;;;5068449;28;20040;-67
2023/01/06 07:57:09;;;;;;;3.88;2.90;;;9.60;99.90;;;;;;5069009;28;20403;-66
2023/01/06 07:59:35;;;;;;;5.40;2.50;;;9.70;99.90;;;;;;5069498;28;20077;-65
2023/01/06 08:02:00;;;;;;;4.32;2.40;;;9.70;99.90;;;;;;5069503;28;20044;-65
2023/01/06 08:04:26;;;;;;;5.45;1.70;;;9.70;99.90;;;;;;5082069;28;20060;-66
2023/01/06 08:06:51;;;;;;;4.90;2.00;;;9.70;99.90;;;;;;5068717;28;20070;-65
2023/01/06 08:09:17;;;;;;;7.30;1.73;;;9.70;99.90;;;;;;5067803;28;20052;-67
2023/01/06 08:11:43;;;;;;;4.22;1.60;;;9.70;99.90;;;;;;5068946;28;20040;-66
2023/01/06 08:14:10;;;;;;;5.18;1.75;;;9.70;99.90;;;;;;5070456;28;20112;-66
2023/01/06 08:16:40;;;;;;;5.15;1.65;;;9.60;99.90;;;;;;5053522;28;20495;-66
2023/01/06 08:19:06;;;;;;;4.57;1.10;;;9.50;99.90;;;;;;5069108;28;20036;-66
2023/01/06 08:21:31;;;;;;;6.20;1.42;;;9.50;99.90;;;;;;5068641;28;20097;-67
2023/01/06 08:23:57;;;;;;;5.03;1.35;;;9.40;99.90;;;;;;5071021;28;20535;-66
2023/01/06 08:26:23;;;;;;;5.00;1.20;;;9.30;99.90;;;;;;5069752;28;20123;-66
2023/01/06 08:28:49;;;;;;;4.65;1.30;;;9.20;99.90;;;;;;5069484;28;20040;-67
2023/01/06 08:31:17;;;;;;;4.38;1.33;;;9.20;99.90;;;;;;5069952;28;20449;-67
2023/01/06 08:33:44;;;;;;;3.05;1.20;;;9.10;99.90;;;;;;5066705;28;20502;-67
2023/01/06 08:36:13;;;;;;;5.47;1.30;;;9.10;99.90;;;;;;5051775;28;20055;-66
2023/01/06 08:38:39;;;;;;;5.93;1.10;;;9.10;99.90;;;;;;5069290;28;20036;-66
2023/01/06 08:41:05;;;;;;;4.40;1.52;;;9.10;99.90;;;;;;5067327;28;20071;-66
2023/01/06 08:43:31;;;;;;;5.75;1.30;;;9.00;99.90;;;;;;5069064;28;20109;-66
2023/01/06 08:46:02;;;;;;;6.72;1.67;;;9.00;99.90;;;;;;5052961;28;20048;-66
2023/01/06 08:48:28;;;;;;;4.50;1.00;;;8.90;99.90;;;;;;5069499;28;20052;-66
2023/01/06 08:50:55;;;;;;;9.60;2.05;;;8.90;99.90;;;;;;5067940;28;20098;-66
2023/01/06 08:53:21;;;;;;;4.65;0.90;;;8.90;99.90;;;;;;5068020;28;21535;-66
2023/01/06 08:55:47;;;;;;;5.68;1.05;;;8.90;99.90;;;;;;5052871;28;20036;-66
2023/01/06 08:58:13;;;;;;;5.90;1.20;;;8.80;99.90;;;;;;5069002;28;20102;-66
2023/01/06 09:00:41;;;;;;;6.90;1.02;;;8.80;99.90;;;;;;5070410;28;20446;-66
2023/01/06 09:03:07;;;;;;;3.72;1.10;;;8.80;99.90;;;;;;5068041;28;20068;-66
2023/01/06 09:05:32;;;;;;;4.95;1.00;;;8.80;99.90;;;;;;5068246;28;20530;-66
2023/01/06 09:07:58;;;;;;;4.25;1.10;;;8.80;99.90;;;;;;5068941;28;20051;-66
2023/01/06 09:10:24;;;;;;;4.95;1.00;;;8.80;99.90;;;;;;5067948;28;20040;-66
2023/01/06 09:12:50;;;;;;;3.65;0.80;;;8.70;99.90;;;;;;5068146;28;20059;-67
2023/01/06 09:15:16;;;;;;;6.60;1.65;;;8.70;99.90;;;;;;5067691;28;20040;-66
2023/01/06 09:17:42;;;;;;;5.68;1.10;;;8.80;99.90;;;;;;5070073;28;20040;-66
2023/01/06 09:20:09;;;;;;;7.32;1.05;;;8.80;99.90;;;;;;5068390;28;20427;-66
2023/01/06 09:22:35;;;;;;;7.38;0.90;;;8.80;99.90;;;;;;5052378;28;20043;-66
2023/01/06 09:25:01;;;;;;;5.90;0.82;;;8.80;99.90;;;;;;5068447;28;20040;-66
2023/01/06 09:27:26;;;;;;;5.30;1.15;;;8.90;99.90;;;;;;5068329;28;20044;-65
2023/01/06 09:29:52;;;;;;;8.73;1.55;;;9.00;99.90;;;;;;5064201;28;20527;-66
2023/01/06 09:32:18;;;;;;;10.63;1.15;;;9.00;99.90;;;;;;5065303;28;20051;-66
2023/01/06 09:34:43;;;;;;;7.95;1.25;;;9.10;99.90;;;;;;5050734;28;20059;-66
2023/01/06 09:37:09;;;;;;;8.15;0.90;;;9.20;99.90;;;;;;5068119;28;20037;-66
2023/01/06 09:39:38;;;;;;;10.20;1.20;;;9.20;99.90;;;;;;5068981;28;20032;-67
2023/01/06 09:42:19;;;;;;;10.73;1.10;;;9.30;99.90;;;;;;5068640;28;20510;-67
2023/01/06 09:44:51;;;;;;;6.70;1.73;;;9.30;99.90;;;;;;5066315;28;20051;-66
2023/01/06 09:47:22;;;;;;;7.97;1.70;;;9.30;99.90;;;;;;5066086;28;20067;-66
2023/01/06 09:50:05;;;;;;;8.25;1.25;;;9.40;99.90;;;;;;5068460;28;20091;-66
2023/01/06 09:52:40;;;;;;;13.35;2.15;;;9.50;99.90;;;;;;5068086;28;20075;-66
2023/01/06 09:55:24;;;;;;;7.85;1.20;;;9.50;99.90;;;;;;5051462;28;20084;-66
2023/01/06 09:57:57;;;;;;;9.07;1.35;;;9.60;99.90;;;;;;5065140;28;20054;-66
2023/01/06 10:00:28;;;;;;;7.85;1.42;;;9.70;99.90;;;;;;5068315;28;20043;-67
2023/01/06 10:02:55;;;;;;;9.85;1.63;;;9.80;99.90;;;;;;5067798;28;20036;-66
2023/01/06 10:06:08;;;;;;;9.07;1.35;;;10.00;99.90;;;;;;5068650;28;20044;-66
2023/01/06 10:08:58;;;;;;;12.02;1.52;;;10.10;99.90;;;;;;5066431;28;20123;-67
2023/01/06 10:11:48;;;;;;;9.48;1.50;;;10.20;99.90;;;;;;5065372;28;20391;-66
2023/01/06 10:14:20;;;;;;;8.60;1.38;;;10.30;99.90;;;;;;5065929;28;20097;-66
2023/01/06 10:16:54;;;;;;;12.40;1.58;;;10.40;99.90;;;;;;5071891;28;20041;-67
2023/01/06 10:19:38;;;;;;;8.90;1.25;;;10.50;99.90;;;;;;5072424;28;20048;-66
2023/01/06 10:22:27;;;;;;;7.32;1.20;;;10.50;99.90;;;;;;5071689;28;20427;-67
2023/01/06 10:24:57;;;;;;;7.47;1.10;;;10.50;99.90;;;;;;5055448;28;20060;-66
2023/01/06 10:27:28;;;;;;;6.72;1.20;;;10.60;99.90;;;;;;5071452;28;20044;-67
2023/01/06 10:29:56;;;;;;;7.43;1.20;;;10.60;99.90;;;;;;5053679;28;20052;-67
2023/01/06 10:32:27;;;;;;;6.38;1.10;;;10.70;99.90;;;;;;5069589;28;20055;-67
2023/01/06 10:34:53;;;;;;;6.88;1.30;;;10.70;99.90;;;;;;5071020;28;20053;-66
2023/01/06 10:37:24;;;;;;;9.05;1.50;;;10.60;99.90;;;;;;5053241;28;20060;-66
2023/01/06 10:40:03;;;;;;;10.20;2.20;;;10.60;99.90;;;;;;5071898;28;20041;-67
2023/01/06 10:42:56;;;;;;;9.50;1.50;;;10.60;99.90;;;;;;5071758;28;20102;-66
2023/01/06 10:45:43;;;;;;;9.10;1.67;;;10.60;99.90;;;;;;5069427;28;20040;-67
2023/01/06 10:48:28;;;;;;;10.10;1.50;;;10.60;99.90;;;;;;5070471;28;20043;-67
2023/01/06 10:50:53;;;;;;;8.48;1.35;;;10.50;99.90;;;;;;5070459;28;20080;-66
2023/01/06 10:53:19;;;;;;;10.85;1.30;;;10.40;99.90;;;;;;5070985;28;20126;-67
2023/01/06 10:55:45;;;;;;;8.13;1.20;;;10.40;99.90;;;;;;5055123;28;20109;-67
2023/01/06 10:58:16;;;;;;;10.15;1.40;;;10.50;99.90;;;;;;5070232;28;20052;-66
2023/01/06 11:00:55;;;;;;;12.63;1.60;;;10.50;99.90;;;;;;5070602;28;20052;-67
2023/01/06 11:03:21;;;;;;;8.20;1.42;;;10.50;99.90;;;;;;5069809;28;20573;-67
2023/01/06 11:05:58;;;;;;;9.82;1.65;;;10.60;99.90;;;;;;5069566;28;20051;-67
2023/01/06 11:08:24;;;;;;;8.48;1.63;;;10.60;99.90;;;;;;5069743;28;20048;-67
2023/01/06 11:10:49;;;;;;;8.10;1.20;;;10.60;99.90;;;;;;5082143;28;20068;-66
2023/01/06 11:13:34;;;;;;;7.90;1.58;;;10.60;99.90;;;;;;5069658;28;20403;-67
2023/01/06 11:16:03;;;;;;;4.03;1.15;;;10.50;99.90;;;;;;5070468;28;20049;-67
2023/01/06 11:18:31;;;;;;;6.78;1.40;;;10.60;99.90;;;;;;5067639;28;20047;-66
2023/01/06 11:21:09;;;;;;;6.43;1.15;;;10.60;99.90;;;;;;5053634;28;20119;-66
2023/01/06 11:23:36;;;;;;;10.52;2.05;;;10.70;99.90;;;;;;5051231;28;20068;-67
2023/01/06 11:26:11;;;;;;;8.57;1.40;;;10.50;99.90;;;;;;5069986;28;20098;-67
2023/01/06 11:28:45;;;;;;;6.60;1.20;;;10.60;99.90;;;;;;5068621;28;20036;-67
2023/01/06 11:31:14;;;;;;;8.00;1.77;;;10.60;99.90;;;;;;5069513;28;20044;-67
2023/01/06 11:34:02;;;;;;;7.30;1.40;;;10.50;99.90;;;;;;5070710;28;20044;-67
2023/01/06 11:36:32;;;;;;;8.75;1.52;;;10.50;99.90;;;;;;5070481;28;20372;-66
2023/01/06 11:39:01;;;;;;;7.88;1.30;;;10.50;99.90;;;;;;5071088;28;20041;-66
2023/01/06 11:41:33;;;;;;;5.43;1.15;;;10.70;99.90;;;;;;5068895;28;20064;-66
2023/01/06 11:44:28;;;;;;;9.13;1.48;;;10.90;99.90;;;;;;5069509;28;20450;-66
2023/01/06 11:47:01;;;;;;;8.85;1.13;;;10.80;99.90;;;;;;5067850;28;20113;-66
2023/01/06 11:49:51;;;;;;;5.40;1.30;;;11.00;99.90;;;;;;5069857;28;20040;-66
2023/01/06 11:52:16;;;;;;;10.57;1.50;;;11.10;99.90;;;;;;5068982;28;20040;-66
2023/01/06 11:54:42;;;;;;;8.15;1.17;;;11.20;99.90;;;;;;5069754;28;20409;-67
2023/01/06 11:57:30;;;;;;;6.53;0.95;;;11.40;99.90;;;;;;5069127;28;20495;-66
2023/01/06 12:00:10;;;;;;;9.25;2.38;;;11.30;99.90;;;;;;5068842;28;20055;-66
2023/01/06 12:03:02;;;;;;;7.97;1.10;;;11.30;99.90;;;;;;5068134;28;20113;-66
2023/01/06 12:05:37;;;;;;;8.13;1.00;;;11.20;99.90;;;;;;5061156;28;20040;-66
2023/01/06 12:08:37;;;;;;;4.97;1.08;;;11.20;99.90;;;;;;5067476;28;20094;-66
2023/01/06 12:11:13;;;;;;;9.32;1.58;;;11.20;99.90;;;;;;5066988;28;20052;-66
2023/01/06 12:13:39;;;;;;;10.48;1.27;;;11.10;99.90;;;;;;5068959;28;20036;-66
2023/01/06 12:16:22;;;;;;;5.75;1.23;;;10.90;99.90;;;;;;5051323;28;20044;-67
2023/01/06 12:18:49;;;;;;;7.90;1.13;;;10.70;99.90;;;;;;5067681;28;20051;-66
2023/01/06 12:21:30;;;;;;;6.95;1.23;;;10.50;99.90;;;;;;5082610;28;20053;-66
2023/01/06 12:23:59;;;;;;;13.23;1.60;;;10.40;99.90;;;;;;5051464;28;20116;-66
2023/01/06 12:26:26;;;;;;;12.85;1.92;;;10.40;99.90;;;;;;5067787;28;20044;-66
2023/01/06 12:28:54;;;;;;;8.50;1.58;;;10.40;99.90;;;;;;5067600;28;20094;-66
2023/01/06 12:31:34;;;;;;;6.32;1.17;;;10.40;99.90;;;;;;5068871;28;20060;-66
2023/01/06 12:34:03;;;;;;;8.90;1.90;;;10.40;99.90;;;;;;5070363;28;20040;-66
2023/01/06 12:36:45;;;;;;;8.73;2.00;;;10.50;99.90;;;;;;5069256;28;20036;-66
2023/01/06 12:39:22;;;;;;;8.52;2.35;;;10.60;99.90;;;;;;5070087;28;20165;-66
2023/01/06 12:42:02;;;;;;;8.00;1.85;;;10.80;99.90;;;;;;5069949;28;20180;-66
2023/01/06 12:44:48;;;;;;;5.70;1.48;;;10.80;99.90;;;;;;5069962;28;20395;-66
2023/01/06 12:47:18;;;;;;;8.38;1.25;;;10.80;99.90;;;;;;5052842;28;20060;-66
2023/01/06 12:50:22;;;;;;;11.00;1.73;;;10.90;99.90;;;;;;5069789;28;20070;-66
2023/01/06 12:52:59;;;;;;;5.82;1.05;;;10.80;99.90;;;;;;5059062;28;20044;-66
2023/01/06 12:56:02;;;;;;;7.28;1.00;;;10.70;99.90;;;;;;5070010;28;20041;-66
2023/01/06 12:58:50;;;;;;;5.93;1.15;;;10.60;99.90;;;;;;5069476;28;20055;-66
2023/01/06 13:01:44;;;;;;;7.53;1.40;;;10.40;99.90;;;;;;5069974;28;20040;-66
2023/01/06 13:04:23;;;;;;;8.05;1.27;;;10.20;99.90;;;;;;5069624;28;20028;-67
2023/01/06 13:07:13;;;;;;;6.50;1.83;;;10.10;99.90;;;;;;5069797;28;20487;-66
2023/01/06 13:10:12;;;;;;;8.60;1.10;;;10.00;99.90;;;;;;5068803;28;20056;-66
2023/01/06 13:13:03;;;;;;;11.23;2.10;;;10.00;99.90;;;;;;5048175;28;20059;-66